San Ygnacio, TX

6:47 PM CST on December 27, 2014 (GMT -0600)
Zapata | Change Station
CLOSE
Current Station
Airport
Location: Zapata,
Elevation: 423 ft
Nearby Weather Stations

Elev 423 ft 26.97 °N, 99.25 °W | Updated 12 minutes ago

Overcast
Overcast
54 °F
Feels Like 54 °F
N
15
Wind Variable Wind from NNW
Gusts 23 mph

Today
High -- | Low -- °F
--% Chance of Precip.
Yesterday
High -- | Low -- °F
Precip. -- in
7:25 AM 5:52 PM
Waxing Crescent, 42% visible
Pressure 30.14 in
Visibility 10.0 miles
Clouds Overcast 1400 ft
Dew Point 49 °F
Humidity 82%
Rainfall 0.00 in
Snow Depth Not available.
UV 0 out of 12
Pollen 10.70 out of 12
Air Quality Not available.
Flu Activity Not available.
METAR KAPY 280035Z AUTO 33013G20KT 10SM OVC014 12/09 A3014 RMK AO2 T01250095

More Conditions Fewer Conditions

Pressure 30.14 in
Visibility 10.0 miles
Clouds Overcast 1400 ft
Dew Point 49 °F
Humidity 82%
Rainfall 0.00 in
Snow Depth Not available.
UV 0 out of 12
Pollen 10.70 out of 12
Air Quality Not available.
Flu Activity Not available.
METAR KAPY 280035Z AUTO 33013G20KT 10SM OVC014 12/09 A3014 RMK AO2 T01250095

More Conditions Fewer Conditions

Nowcast | as of 5:59 PM CST on December 27, 2014

Through 8 PM...isolated to scattered showers will develop and move across much of deep south Texas and the Rio Grande Valley ahead of an approaching cold front. Precipitation will be mainly light with locally moderate downpours possible. Amounts will generally be under a tenth of an inch.

×

10-Day Weather Forecast

Almanac

Astronomy

Dec. 27, 2014 Rise Set
Actual Time
Civil Twilight
Nautical Twilight
Astronomical Twilight
Moon
Length of Visible Light
Length of Day
Tomorrow will be .
, % of the Moon is Illuminated

Today's Extremes

State Highs State Lows

Community

WunderPhotos

Upload Photos

1,781,117 photos uploaded!

WunderBlogs® & News

Nearby

Air Quality

  Air Quality AQ Index Pollutant
Not available.

Snow Depth

Station Depth Elevation

Earthquake Activity

City Distance Mag. Time & Date
Minimum magnitude displayed is 2.5.

Coastal Water Temperatures

Place Temperature

Nearby Weather Stations